sensor_id;sensor_type;location;lat;lon;timestamp;pressure;altitude;pressure_sealevel;temperature;humidity
16100;BME280;8154;50.830;12.082;2023-01-29T00:01:32;100637.31;;;21.14;33.10
16100;BME280;8154;50.830;12.082;2023-01-29T00:04:00;100645.97;;;21.16;33.21
16100;BME280;8154;50.830;12.082;2023-01-29T00:06:27;100632.81;;;21.15;33.17
16100;BME280;8154;50.830;12.082;2023-01-29T00:08:56;100629.50;;;21.13;33.20
16100;BME280;8154;50.830;12.082;2023-01-29T00:11:24;100621.53;;;21.13;33.21
16100;BME280;8154;50.830;12.082;2023-01-29T00:13:54;100611.69;;;21.13;33.14
16100;BME280;8154;50.830;12.082;2023-01-29T00:16:22;100613.56;;;21.13;33.08
16100;BME280;8154;50.830;12.082;2023-01-29T00:18:51;100621.53;;;21.13;33.17
16100;BME280;8154;50.830;12.082;2023-01-29T00:21:20;100605.56;;;21.13;33.13
16100;BME280;8154;50.830;12.082;2023-01-29T00:23:48;100608.22;;;21.13;33.15
16100;BME280;8154;50.830;12.082;2023-01-29T00:26:16;100603.88;;;21.12;32.93
16100;BME280;8154;50.830;12.082;2023-01-29T00:28:46;100599.56;;;21.11;33.19
16100;BME280;8154;50.830;12.082;2023-01-29T00:31:17;100609.50;;;21.09;33.14
16100;BME280;8154;50.830;12.082;2023-01-29T00:33:46;100600.56;;;21.10;33.25
16100;BME280;8154;50.830;12.082;2023-01-29T00:36:16;100605.03;;;21.09;33.15
16100;BME280;8154;50.830;12.082;2023-01-29T00:38:45;100598.88;;;21.09;33.12
16100;BME280;8154;50.830;12.082;2023-01-29T00:41:21;100602.53;;;21.08;33.18
16100;BME280;8154;50.830;12.082;2023-01-29T00:44:07;100599.88;;;21.08;33.20
16100;BME280;8154;50.830;12.082;2023-01-29T00:46:53;100603.50;;;21.07;33.21
16100;BME280;8154;50.830;12.082;2023-01-29T00:49:21;100603.50;;;21.07;33.14
16100;BME280;8154;50.830;12.082;2023-01-29T00:51:52;100598.19;;;21.07;33.11
16100;BME280;8154;50.830;12.082;2023-01-29T00:54:38;100593.03;;;21.05;33.23
16100;BME280;8154;50.830;12.082;2023-01-29T00:57:07;100597.38;;;21.06;33.20
16100;BME280;8154;50.830;12.082;2023-01-29T00:59:36;100589.53;;;21.05;33.14
16100;BME280;8154;50.830;12.082;2023-01-29T01:02:04;100589.53;;;21.05;33.13
16100;BME280;8154;50.830;12.082;2023-01-29T01:04:50;100601.16;;;21.04;33.27
16100;BME280;8154;50.830;12.082;2023-01-29T01:07:18;100596.81;;;21.03;33.10
16100;BME280;8154;50.830;12.082;2023-01-29T01:09:45;100597.81;;;21.02;33.13
16100;BME280;8154;50.830;12.082;2023-01-29T01:12:32;100597.69;;;21.03;33.20
16100;BME280;8154;50.830;12.082;2023-01-29T01:15:01;100594.31;;;21.01;33.24
16100;BME280;8154;50.830;12.082;2023-01-29T01:17:30;100588.16;;;21.01;33.25
16100;BME280;8154;50.830;12.082;2023-01-29T01:19:58;100592.50;;;21.02;33.10
16100;BME280;8154;50.830;12.082;2023-01-29T01:22:28;100591.50;;;21.03;33.08
16100;BME280;8154;50.830;12.082;2023-01-29T01:24:59;100584.53;;;21.02;33.20
16100;BME280;8154;50.830;12.082;2023-01-29T01:27:29;100588.16;;;21.01;33.23
16100;BME280;8154;50.830;12.082;2023-01-29T01:29:59;100583.00;;;20.99;33.17
16100;BME280;8154;50.830;12.082;2023-01-29T01:32:29;100583.16;;;20.98;33.20
16100;BME280;8154;50.830;12.082;2023-01-29T01:34:59;100585.81;;;20.98;33.22
16100;BME280;8154;50.830;12.082;2023-01-29T01:37:31;100584.00;;;20.98;33.12
16100;BME280;8154;50.830;12.082;2023-01-29T01:39:59;100577.84;;;20.98;33.12
16100;BME280;8154;50.830;12.082;2023-01-29T01:42:30;100576.19;;;20.97;33.18
16100;BME280;8154;50.830;12.082;2023-01-29T01:45:03;100582.19;;;20.99;33.02
16100;BME280;8154;50.830;12.082;2023-01-29T01:47:42;100582.34;;;20.97;33.22
16100;BME280;8154;50.830;12.082;2023-01-29T01:50:18;100577.19;;;20.96;33.17
16100;BME280;8154;50.830;12.082;2023-01-29T01:52:53;100566.66;;;20.94;33.18
16100;BME280;8154;50.830;12.082;2023-01-29T01:55:33;100564.97;;;20.93;33.29
16100;BME280;8154;50.830;12.082;2023-01-29T01:58:12;100565.28;;;20.90;33.35
16100;BME280;8154;50.830;12.082;2023-01-29T02:00:43;100554.81;;;20.89;33.23
16100;BME280;8154;50.830;12.082;2023-01-29T02:03:19;100553.69;;;20.91;33.22
16100;BME280;8154;50.830;12.082;2023-01-29T02:06:09;100553.69;;;20.91;33.35
16100;BME280;8154;50.830;12.082;2023-01-29T02:08:56;100550.19;;;20.91;33.15
16100;BME280;8154;50.830;12.082;2023-01-29T02:11:50;100547.53;;;20.91;33.27
16100;BME280;8154;50.830;12.082;2023-01-29T02:14:20;100542.38;;;20.89;33.25
16100;BME280;8154;50.830;12.082;2023-01-29T02:16:54;100546.00;;;20.88;33.33
16100;BME280;8154;50.830;12.082;2023-01-29T02:25:14;100559.97;;;20.90;33.23
16100;BME280;8154;50.830;12.082;2023-01-29T02:36:58;100569.41;;;20.85;33.38
16100;BME280;8154;50.830;12.082;2023-01-29T02:48:02;100571.06;;;20.86;33.31
16100;BME280;8154;50.830;12.082;2023-01-29T02:50:42;100572.06;;;20.85;33.11
16100;BME280;8154;50.830;12.082;2023-01-29T02:53:14;100573.72;;;20.86;33.20
16100;BME280;8154;50.830;12.082;2023-01-29T02:59:30;100582.69;;;20.85;33.20
16100;BME280;8154;50.830;12.082;2023-01-29T03:02:06;100581.00;;;20.84;32.99
16100;BME280;8154;50.830;12.082;2023-01-29T03:04:40;100577.66;;;20.82;33.29
16100;BME280;8154;50.830;12.082;2023-01-29T03:07:30;100574.00;;;20.83;33.18
16100;BME280;8154;50.830;12.082;2023-01-29T03:10:18;100575.81;;;20.82;33.27
16100;BME280;8154;50.830;12.082;2023-01-29T03:12:55;100574.72;;;20.85;33.08
16100;BME280;8154;50.830;12.082;2023-01-29T03:15:42;100575.16;;;20.80;33.16
16100;BME280;8154;50.830;12.082;2023-01-29T03:18:17;100584.94;;;20.80;33.28
16100;BME280;8154;50.830;12.082;2023-01-29T03:20:53;100584.94;;;20.80;33.20
16100;BME280;8154;50.830;12.082;2023-01-29T03:23:28;100577.66;;;20.82;33.23
16100;BME280;8154;50.830;12.082;2023-01-29T03:26:17;100575.97;;;20.81;33.25
16100;BME280;8154;50.830;12.082;2023-01-29T03:29:06;100568.00;;;20.81;33.27
16100;BME280;8154;50.830;12.082;2023-01-29T03:31:55;100578.78;;;20.79;33.16
16100;BME280;8154;50.830;12.082;2023-01-29T03:34:40;100576.81;;;20.81;33.24
16100;BME280;8154;50.830;12.082;2023-01-29T03:39:45;100575.31;;;20.79;33.13
16100;BME280;8154;50.830;12.082;2023-01-29T03:42:17;100578.28;;;20.76;33.19
16100;BME280;8154;50.830;12.082;2023-01-29T03:45:04;100579.94;;;20.77;33.38
16100;BME280;8154;50.830;12.082;2023-01-29T03:50:48;100575.78;;;20.74;33.31
16100;BME280;8154;50.830;12.082;2023-01-29T03:56:01;100572.41;;;20.72;33.33
16100;BME280;8154;50.830;12.082;2023-01-29T04:01:10;100565.81;;;20.76;33.24
16100;BME280;8154;50.830;12.082;2023-01-29T04:03:52;100556.19;;;20.75;33.13
16100;BME280;8154;50.830;12.082;2023-01-29T04:06:33;100543.88;;;20.74;33.24
16100;BME280;8154;50.830;12.082;2023-01-29T04:09:11;100551.72;;;20.76;33.11
16100;BME280;8154;50.830;12.082;2023-01-29T04:11:46;100544.16;;;20.71;33.28
16100;BME280;8154;50.830;12.082;2023-01-29T04:14:18;100552.13;;;20.71;33.14
16100;BME280;8154;50.830;12.082;2023-01-29T04:16:50;100548.34;;;20.74;33.28
16100;BME280;8154;50.830;12.082;2023-01-29T04:19:19;100552.81;;;20.73;33.19
16100;BME280;8154;50.830;12.082;2023-01-29T04:21:48;100545.69;;;20.74;33.20
16100;BME280;8154;50.830;12.082;2023-01-29T05:23:21;100488.94;;;20.57;33.25
16100;BME280;8154;50.830;12.082;2023-01-29T05:25:50;100497.72;;;20.58;33.08
16100;BME280;8154;50.830;12.082;2023-01-29T05:28:19;100488.09;;;20.57;33.15
16100;BME280;8154;50.830;12.082;2023-01-29T05:30:51;100488.09;;;20.57;33.33
16100;BME280;8154;50.830;12.082;2023-01-29T05:33:24;100493.72;;;20.54;33.19
16100;BME280;8154;50.830;12.082;2023-01-29T05:35:53;100473.16;;;20.56;33.08
16100;BME280;8154;50.830;12.082;2023-01-29T05:38:22;100459.88;;;20.56;33.09
16100;BME280;8154;50.830;12.082;2023-01-29T05:40:51;100458.19;;;20.55;33.21
16100;BME280;8154;50.830;12.082;2023-01-29T05:43:19;100463.34;;;20.56;33.09
16100;BME280;8154;50.830;12.082;2023-01-29T05:45:55;100483.63;;;20.57;33.04
16100;BME280;8154;50.830;12.082;2023-01-29T05:48:25;100474.81;;;20.57;33.13
16100;BME280;8154;50.830;12.082;2023-01-29T05:51:04;100480.81;;;20.59;33.00
16100;BME280;8154;50.830;12.082;2023-01-29T05:53:32;100472.84;;;20.59;33.12
16100;BME280;8154;50.830;12.082;2023-01-29T05:56:04;100488.25;;;20.55;33.04
16100;BME280;8154;50.830;12.082;2023-01-29T05:58:32;100474.81;;;20.57;33.03
16100;BME280;8154;50.830;12.082;2023-01-29T06:01:12;100479.13;;;20.58;33.10
16100;BME280;8154;50.830;12.082;2023-01-29T06:03:40;100491.75;;;20.56;33.21
16100;BME280;8154;50.830;12.082;2023-01-29T06:06:07;100494.41;;;20.56;33.13
16100;BME280;8154;50.830;12.082;2023-01-29T06:08:36;100476.78;;;20.55;33.30
16100;BME280;8154;50.830;12.082;2023-01-29T06:11:06;100482.09;;;20.55;33.24
16100;BME280;8154;50.830;12.082;2023-01-29T06:13:38;100486.44;;;20.56;33.07
16100;BME280;8154;50.830;12.082;2023-01-29T06:16:07;100486.44;;;20.56;33.23
16100;BME280;8154;50.830;12.082;2023-01-29T06:18:42;100477.09;;;20.52;33.19
16100;BME280;8154;50.830;12.082;2023-01-29T06:21:13;100468.00;;;20.54;33.06
16100;BME280;8154;50.830;12.082;2023-01-29T08:30:39;100559.53;;;20.77;32.65
16100;BME280;8154;50.830;12.082;2023-01-29T08:33:07;100548.22;;;20.75;32.51
16100;BME280;8154;50.830;12.082;2023-01-29T08:35:35;100535.91;;;20.74;32.55
16100;BME280;8154;50.830;12.082;2023-01-29T08:38:04;100533.94;;;20.76;32.73
16100;BME280;8154;50.830;12.082;2023-01-29T08:40:35;100526.09;;;20.75;32.50
16100;BME280;8154;50.830;12.082;2023-01-29T08:43:06;100511.84;;;20.76;32.62
16100;BME280;8154;50.830;12.082;2023-01-29T08:45:36;100529.75;;;20.74;32.57
16100;BME280;8154;50.830;12.082;2023-01-29T08:48:06;100526.09;;;20.75;32.56
16100;BME280;8154;50.830;12.082;2023-01-29T08:50:34;100524.28;;;20.75;32.61
16100;BME280;8154;50.830;12.082;2023-01-29T08:53:03;100519.97;;;20.74;32.73
16100;BME280;8154;50.830;12.082;2023-01-29T08:55:38;100539.78;;;20.80;32.52
16100;BME280;8154;50.830;12.082;2023-01-29T08:58:10;100552.06;;;20.81;32.44
16100;BME280;8154;50.830;12.082;2023-01-29T09:00:40;100554.72;;;20.81;32.61
16100;BME280;8154;50.830;12.082;2023-01-29T09:03:12;100566.19;;;20.81;32.44
16100;BME280;8154;50.830;12.082;2023-01-29T09:05:41;100552.38;;;20.78;32.48
16100;BME280;8154;50.830;12.082;2023-01-29T09:08:09;100557.22;;;20.82;32.39
16100;BME280;8154;50.830;12.082;2023-01-29T09:10:40;100565.34;;;20.81;32.53
16100;BME280;8154;50.830;12.082;2023-01-29T09:13:07;100562.69;;;20.81;32.40
16100;BME280;8154;50.830;12.082;2023-01-29T09:15:46;100565.34;;;20.81;32.41
16100;BME280;8154;50.830;12.082;2023-01-29T09:18:17;100570.66;;;20.81;32.58
16100;BME280;8154;50.830;12.082;2023-01-29T09:20:53;100589.13;;;20.82;32.60
16100;BME280;8154;50.830;12.082;2023-01-29T09:23:24;100591.78;;;20.82;32.39
16100;BME280;8154;50.830;12.082;2023-01-29T09:25:56;100573.88;;;20.84;32.51
16100;BME280;8154;50.830;12.082;2023-01-29T09:28:28;100555.41;;;20.83;32.45
16100;BME280;8154;50.830;12.082;2023-01-29T09:31:02;100556.09;;;20.85;32.40
16100;BME280;8154;50.830;12.082;2023-01-29T10:32:38;100471.38;;;20.99;32.03
16100;BME280;8154;50.830;12.082;2023-01-29T10:35:23;100462.28;;;21.02;32.08
16100;BME280;8154;50.830;12.082;2023-01-29T10:37:56;100449.97;;;21.01;32.13
16100;BME280;8154;50.830;12.082;2023-01-29T10:40:40;100440.16;;;21.01;32.09
16100;BME280;8154;50.830;12.082;2023-01-29T10:43:27;100441.81;;;21.02;32.00
16100;BME280;8154;50.830;12.082;2023-01-29T10:46:13;100439.84;;;21.04;32.10
16100;BME280;8154;50.830;12.082;2023-01-29T10:57:19;100423.59;;;21.07;32.03
16100;BME280;8154;50.830;12.082;2023-01-29T11:02:26;100413.31;;;21.12;31.96
16100;BME280;8154;50.830;12.082;2023-01-29T11:04:53;100412.38;;;21.22;31.70
16100;BME280;8154;50.830;12.082;2023-01-29T11:07:22;100411.91;;;21.26;31.55
16100;BME280;8154;50.830;12.082;2023-01-29T11:10:02;100410.56;;;21.22;31.66
16100;BME280;8154;50.830;12.082;2023-01-29T11:12:32;100406.38;;;21.19;31.95
16100;BME280;8154;50.830;12.082;2023-01-29T11:15:23;100394.41;;;21.15;31.86
16100;BME280;8154;50.830;12.082;2023-01-29T11:18:13;100396.06;;;21.16;31.70
16100;BME280;8154;50.830;12.082;2023-01-29T11:20:45;100384.63;;;21.16;31.89
16100;BME280;8154;50.830;12.082;2023-01-29T11:23:28;100387.44;;;21.14;31.76
16100;BME280;8154;50.830;12.082;2023-01-29T11:25:59;100384.63;;;21.16;31.80
16100;BME280;8154;50.830;12.082;2023-01-29T11:28:43;100377.44;;;21.16;31.80
16100;BME280;8154;50.830;12.082;2023-01-29T11:33:52;100369.38;;;21.26;31.57
16100;BME280;8154;50.830;12.082;2023-01-29T11:36:36;100363.41;;;21.32;31.50
16100;BME280;8154;50.830;12.082;2023-01-29T11:39:23;100353.94;;;21.30;31.73
16100;BME280;8154;50.830;12.082;2023-01-29T11:41:56;100338.31;;;21.27;31.69
16100;BME280;8154;50.830;12.082;2023-01-29T11:44:30;100336.78;;;21.24;31.61
16100;BME280;8154;50.830;12.082;2023-01-29T11:47:16;100340.44;;;21.23;31.75
16100;BME280;8154;50.830;12.082;2023-01-29T11:49:49;100323.63;;;21.23;31.66
16100;BME280;8154;50.830;12.082;2023-01-29T11:52:23;100326.31;;;21.23;31.69
16100;BME280;8154;50.830;12.082;2023-01-29T11:55:17;100311.19;;;21.23;31.64
16100;BME280;8154;50.830;12.082;2023-01-29T11:57:52;100312.19;;;21.22;31.74
16100;BME280;8154;50.830;12.082;2023-01-29T12:00:25;100312.03;;;21.24;31.74
16100;BME280;8154;50.830;12.082;2023-01-29T12:05:56;100312.84;;;21.24;31.66
16100;BME280;8154;50.830;12.082;2023-01-29T12:08:35;100316.38;;;21.33;31.65
16100;BME280;8154;50.830;12.082;2023-01-29T12:11:31;100314.72;;;21.40;31.41
16100;BME280;8154;50.830;12.082;2023-01-29T12:14:05;100307.75;;;21.39;31.44
16100;BME280;8154;50.830;12.082;2023-01-29T12:17:07;100303.94;;;21.33;31.49
16100;BME280;8154;50.830;12.082;2023-01-29T12:27:45;100280.00;;;21.33;31.66
16100;BME280;8154;50.830;12.082;2023-01-29T14:37:51;100155.19;;;21.48;31.51
16100;BME280;8154;50.830;12.082;2023-01-29T14:43:03;100159.34;;;21.42;31.61
16100;BME280;8154;50.830;12.082;2023-01-29T14:45:35;100160.31;;;21.41;31.61
16100;BME280;8154;50.830;12.082;2023-01-29T14:50:41;100172.97;;;21.39;31.70
16100;BME280;8154;50.830;12.082;2023-01-29T14:56:10;100182.63;;;21.48;31.57
16100;BME280;8154;50.830;12.082;2023-01-29T14:58:58;100189.75;;;21.48;31.47
16100;BME280;8154;50.830;12.082;2023-01-29T15:01:39;100199.06;;;21.44;31.61
16100;BME280;8154;50.830;12.082;2023-01-29T15:04:19;100206.72;;;21.39;31.67
16100;BME280;8154;50.830;12.082;2023-01-29T15:10:06;100207.03;;;21.36;31.75
16100;BME280;8154;50.830;12.082;2023-01-29T15:12:45;100204.53;;;21.34;31.84
16100;BME280;8154;50.830;12.082;2023-01-29T15:21:23;100196.91;;;21.31;31.79
16100;BME280;8154;50.830;12.082;2023-01-29T15:24:03;100201.22;;;21.32;31.75
16100;BME280;8154;50.830;12.082;2023-01-29T15:26:35;100194.25;;;21.31;31.80
16100;BME280;8154;50.830;12.082;2023-01-29T15:29:24;100188.06;;;21.31;31.80
16100;BME280;8154;50.830;12.082;2023-01-29T15:31:56;100192.59;;;21.30;31.84
16100;BME280;8154;50.830;12.082;2023-01-29T15:34:26;100183.94;;;21.28;31.79
16100;BME280;8154;50.830;12.082;2023-01-29T15:37:03;100189.25;;;21.28;31.93
16100;BME280;8154;50.830;12.082;2023-01-29T15:39:31;100177.59;;;21.29;31.94
16100;BME280;8154;50.830;12.082;2023-01-29T15:42:15;100174.94;;;21.29;31.83
16100;BME280;8154;50.830;12.082;2023-01-29T15:44:48;100179.09;;;21.40;31.60
16100;BME280;8154;50.830;12.082;2023-01-29T15:47:22;100168.81;;;21.45;31.62
16100;BME280;8154;50.830;12.082;2023-01-29T15:49:51;100168.31;;;21.41;31.59
16100;BME280;8154;50.830;12.082;2023-01-29T15:52:27;100162.84;;;21.35;31.69
16100;BME280;8154;50.830;12.082;2023-01-29T15:55:04;100165.84;;;21.32;31.85
16100;BME280;8154;50.830;12.082;2023-01-29T15:57:40;100158.81;;;21.31;31.75
16100;BME280;8154;50.830;12.082;2023-01-29T16:00:21;100154.84;;;21.27;31.96
16100;BME280;8154;50.830;12.082;2023-01-29T16:02:52;100145.03;;;21.27;31.95
16100;BME280;8154;50.830;12.082;2023-01-29T16:05:34;100155.81;;;21.26;31.84
16100;BME280;8154;50.830;12.082;2023-01-29T16:08:13;100145.19;;;21.26;31.85
16100;BME280;8154;50.830;12.082;2023-01-29T16:10:46;100150.66;;;21.24;31.85
16100;BME280;8154;50.830;12.082;2023-01-29T16:13:24;100150.66;;;21.24;31.85
16100;BME280;8154;50.830;12.082;2023-01-29T16:18:44;100155.66;;;21.19;31.94
16100;BME280;8154;50.830;12.082;2023-01-29T16:26:31;100154.66;;;21.20;31.87
16100;BME280;8154;50.830;12.082;2023-01-29T16:29:06;100146.00;;;21.18;31.90
16100;BME280;8154;50.830;12.082;2023-01-29T16:31:35;100142.38;;;21.19;31.92
16100;BME280;8154;50.830;12.082;2023-01-29T16:34:09;100141.03;;;21.15;32.00
16100;BME280;8154;50.830;12.082;2023-01-29T16:36:46;100152.34;;;21.17;31.96
16100;BME280;8154;50.830;12.082;2023-01-29T20:39:59;99949.19;;;21.03;31.85
16100;BME280;8154;50.830;12.082;2023-01-29T20:42:42;99950.31;;;21.17;31.54
16100;BME280;8154;50.830;12.082;2023-01-29T20:45:25;99949.34;;;21.10;31.55
16100;BME280;8154;50.830;12.082;2023-01-29T20:48:17;99945.50;;;21.04;31.61
16100;BME280;8154;50.830;12.082;2023-01-29T20:51:27;99933.75;;;20.99;31.75
16100;BME280;8154;50.830;12.082;2023-01-29T20:54:04;99933.38;;;20.94;32.00
16100;BME280;8154;50.830;12.082;2023-01-29T20:56:38;99922.06;;;20.92;31.88
16100;BME280;8154;50.830;12.082;2023-01-29T20:59:10;99913.28;;;20.91;31.91
16100;BME280;8154;50.830;12.082;2023-01-29T21:01:51;99917.78;;;20.91;31.87
16100;BME280;8154;50.830;12.082;2023-01-29T21:04:19;99917.94;;;20.89;31.95
16100;BME280;8154;50.830;12.082;2023-01-29T21:06:47;99915.28;;;20.89;31.92
16100;BME280;8154;50.830;12.082;2023-01-29T21:09:14;99909.97;;;20.89;31.93
16100;BME280;8154;50.830;12.082;2023-01-29T21:11:45;99909.78;;;20.91;31.96
16100;BME280;8154;50.830;12.082;2023-01-29T21:14:31;99907.47;;;20.88;32.08
16100;BME280;8154;50.830;12.082;2023-01-29T21:16:57;99906.47;;;20.89;31.97
16100;BME280;8154;50.830;12.082;2023-01-29T21:19:23;99895.16;;;20.87;31.96
16100;BME280;8154;50.830;12.082;2023-01-29T21:21:50;99886.22;;;20.88;32.00
16100;BME280;8154;50.830;12.082;2023-01-29T21:24:16;99880.25;;;20.86;32.00
16100;BME280;8154;50.830;12.082;2023-01-29T21:26:44;99864.47;;;20.84;31.93
16100;BME280;8154;50.830;12.082;2023-01-29T21:29:30;99853.00;;;20.84;32.11
16100;BME280;8154;50.830;12.082;2023-01-29T21:31:56;99845.03;;;20.84;32.20
16100;BME280;8154;50.830;12.082;2023-01-29T21:34:22;99852.03;;;20.85;32.12
16100;BME280;8154;50.830;12.082;2023-01-29T21:36:49;99857.16;;;20.86;32.02
16100;BME280;8154;50.830;12.082;2023-01-29T21:39:15;99860.00;;;20.85;31.87
16100;BME280;8154;50.830;12.082;2023-01-29T23:41:26;99603.25;;;20.61;31.92
16100;BME280;8154;50.830;12.082;2023-01-29T23:44:01;99609.22;;;20.63;31.87
16100;BME280;8154;50.830;12.082;2023-01-29T23:46:37;99614.72;;;20.62;31.90
16100;BME280;8154;50.830;12.082;2023-01-29T23:49:13;99623.31;;;20.64;32.01
16100;BME280;8154;50.830;12.082;2023-01-29T23:51:56;99622.34;;;20.65;31.84
16100;BME280;8154;50.830;12.082;2023-01-29T23:54:29;99613.03;;;20.61;31.93
16100;BME280;8154;50.830;12.082;2023-01-29T23:57:00;99618.00;;;20.64;31.90
16100;BME280;8154;50.830;12.082;2023-01-29T23:59:36;99619.69;;;20.65;31.86
